Terminal Aerodrome Forecast
Issued by NWS Jackson, MS

Home | Current Version | Previous Version | Text Only | Print | Product List | Glossary On
Versions: 1 2 3 4 5 6 7 8 9 10 11 12 13
000
FTUS44 KJAN 011726
TAFMEI
TAF
KMEI 011726Z 0118/0218 25014G20KT P6SM SKC
     FM012200 24007KT P6SM SCT050
     FM020200 22004KT P6SM BKN100
     FM021500 24010KT P6SM FEW250=

USA.gov is the U.S. government's official web portal to all federal, state and local government web resources and services.